createdAt,value
2019-04-19T00:00:12.798Z,64.56
2019-04-19T00:01:11.305Z,64.85
2019-04-19T00:02:12.198Z,65.42
2019-04-19T00:03:11.632Z,65.14
2019-04-19T00:04:12.135Z,64.95
2019-04-19T00:05:09.380Z,65.42
2019-04-19T00:06:15.958Z,65.33
2019-04-19T00:07:13.151Z,65.23
2019-04-19T00:08:22.327Z,65.61
2019-04-19T00:09:21.517Z,66.00
2019-04-19T00:10:23.782Z,65.42
2019-04-19T00:11:18.912Z,65.71
2019-04-19T00:12:21.916Z,66.06
2019-04-19T00:13:09.756Z,65.87
2019-04-19T00:14:08.593Z,65.87
2019-04-19T00:15:09.684Z,66.16
2019-04-19T00:16:08.854Z,67.59
2019-04-19T00:17:13.952Z,66.63
2019-04-19T00:18:12.901Z,66.63
2019-04-19T00:19:35.611Z,67.69
2019-04-19T00:20:45.284Z,67.59
2019-04-19T00:21:24.634Z,67.40
2019-04-19T00:22:28.992Z,67.49
2019-04-19T00:23:18.719Z,68.26
2019-04-19T00:24:08.559Z,68.26
2019-04-19T00:25:09.304Z,68.61
2019-04-19T00:26:08.654Z,68.51
2019-04-19T00:27:09.650Z,68.90
2019-04-19T00:28:08.778Z,68.80
2019-04-19T00:29:17.836Z,68.51
2019-04-19T00:30:24.068Z,68.51
2019-04-19T00:31:22.636Z,68.80
2019-04-19T00:32:24.086Z,69.09
2019-04-19T00:33:18.059Z,68.99
2019-04-19T00:34:08.669Z,68.61
2019-04-19T00:35:09.491Z,68.80
2019-04-19T00:36:11.050Z,68.61
2019-04-19T00:37:09.885Z,68.80
2019-04-19T00:38:14.515Z,68.99
2019-04-19T00:39:23.990Z,68.70
2019-04-19T00:40:27.898Z,68.80
2019-04-19T00:41:25.608Z,68.61
2019-04-19T00:42:28.146Z,68.04
2019-04-19T00:43:25.245Z,67.94
2019-04-19T00:44:33.035Z,67.97
2019-04-19T00:45:23.732Z,68.64
2019-04-19T00:46:25.055Z,68.23
2019-04-19T00:47:27.076Z,67.97
2019-04-19T00:49:15.927Z,67.88
2019-04-19T00:50:18.591Z,68.04
2019-04-19T00:51:18.703Z,68.13
2019-04-19T00:52:23.463Z,67.84
2019-04-19T00:53:22.800Z,67.84
2019-04-19T00:54:18.914Z,68.51
2019-04-19T00:55:16.805Z,68.41
2019-04-19T00:56:15.252Z,68.04
2019-04-19T00:57:19.079Z,68.23
2019-04-19T00:58:16.392Z,68.13
2019-04-19T00:59:12.923Z,68.41
2019-04-19T01:00:11.015Z,68.80
2019-04-19T01:01:14.338Z,68.99
2019-04-19T01:02:14.214Z,68.80
2019-04-19T01:03:12.645Z,68.90
2019-04-19T01:04:13.355Z,68.99
2019-04-19T01:05:13.670Z,68.90
2019-04-19T01:06:15.086Z,68.70
2019-04-19T01:07:13.269Z,69.27
2019-04-19T01:08:13.947Z,69.56
2019-04-19T01:09:25.679Z,70.39
2019-04-19T01:10:22.698Z,70.67
2019-04-19T01:11:24.915Z,69.91
2019-04-19T01:12:20.500Z,70.10
2019-04-19T01:13:17.836Z,69.62
2019-04-19T01:14:21.951Z,69.62
2019-04-19T01:15:19.677Z,69.72
2019-04-19T01:16:21.187Z,69.56
2019-04-19T01:17:22.499Z,69.43
2019-04-19T01:18:23.115Z,69.27
2019-04-19T01:19:13.089Z,69.37
2019-04-19T01:20:11.980Z,69.47
2019-04-19T01:21:09.433Z,69.37
2019-04-19T01:22:13.826Z,69.27
2019-04-19T01:23:12.252Z,69.27
2019-04-19T01:24:09.724Z,69.27
2019-04-19T01:25:16.165Z,69.27
2019-04-19T01:26:12.071Z,69.72
2019-04-19T01:27:14.088Z,69.27
2019-04-19T01:28:15.994Z,69.37
2019-04-19T01:29:12.870Z,69.27
2019-04-19T01:30:10.466Z,69.43
2019-04-19T01:31:16.386Z,69.27
2019-04-19T01:32:13.659Z,69.95
2019-04-19T01:33:10.581Z,70.20
2019-04-19T01:34:16.337Z,71.15
2019-04-19T01:35:14.868Z,71.34
2019-04-19T01:36:10.393Z,71.44
2019-04-19T01:37:17.261Z,72.01
2019-04-19T01:38:10.536Z,71.82
2019-04-19T01:39:25.293Z,72.45
2019-04-19T01:40:26.019Z,72.39
2019-04-19T01:41:27.165Z,73.32
2019-04-19T01:42:24.720Z,73.79
2019-04-19T01:43:29.047Z,73.03
2019-04-19T01:44:27.667Z,72.74
2019-04-19T01:45:22.222Z,71.98
2019-04-19T01:46:31.772Z,72.45
2019-04-19T01:47:31.925Z,72.45
2019-04-19T01:48:29.155Z,72.17
2019-04-19T01:49:22.547Z,72.17
2019-04-19T01:50:24.575Z,72.36
2019-04-19T01:51:29.420Z,72.36
2019-04-19T01:52:37.032Z,71.69
2019-04-19T01:53:29.316Z,70.92
2019-04-19T01:54:26.703Z,71.34
2019-04-19T01:55:18.661Z,71.25
2019-04-19T01:56:12.172Z,71.53
2019-04-19T01:57:12.413Z,70.87
2019-04-19T01:58:14.066Z,71.02
2019-04-19T01:59:10.118Z,71.12
2019-04-19T02:00:12.969Z,70.67
2019-04-19T02:01:15.484Z,71.15
2019-04-19T02:02:14.578Z,70.96
2019-04-19T02:03:11.095Z,71.41
2019-04-19T02:04:15.596Z,70.92
2019-04-19T02:05:14.602Z,71.15
2019-04-19T02:06:13.995Z,71.50
2019-04-19T02:07:12.621Z,71.50
2019-04-19T02:08:14.076Z,71.59
2019-04-19T02:09:11.232Z,71.98
2019-04-19T02:10:22.366Z,71.88
2019-04-19T02:11:26.085Z,71.59
2019-04-19T02:12:27.355Z,71.21
2019-04-19T02:13:19.816Z,71.59
2019-04-19T02:14:17.058Z,71.41
2019-04-19T02:15:14.872Z,71.21
2019-04-19T02:16:17.974Z,71.50
2019-04-19T02:17:13.335Z,70.92
2019-04-19T02:18:12.263Z,70.73
2019-04-19T02:19:16.379Z,70.92
2019-04-19T02:20:11.975Z,71.02
2019-04-19T02:21:13.140Z,70.83
2019-04-19T02:22:16.094Z,70.87
2019-04-19T02:23:13.148Z,71.06
2019-04-19T02:24:10.654Z,71.15
2019-04-19T02:25:17.024Z,71.44
2019-04-19T02:26:14.631Z,70.83
2019-04-19T02:27:13.435Z,70.83
2019-04-19T02:28:15.870Z,71.63
2019-04-19T02:29:18.065Z,70.87
2019-04-19T02:30:19.330Z,71.21
2019-04-19T02:33:40.878Z,71.78
2019-04-19T02:34:57.235Z,71.88
2019-04-19T02:35:34.786Z,71.88
2019-04-19T02:36:44.231Z,72.17
2019-04-19T02:37:34.091Z,72.74
2019-04-19T02:38:37.327Z,72.64
2019-04-19T02:43:45.630Z,73.12
2019-04-19T02:44:47.679Z,73.22
2019-04-19T02:45:38.744Z,73.03
2019-04-19T02:46:42.879Z,73.32
2019-04-19T02:48:49.030Z,73.41
2019-04-19T02:51:01.493Z,74.99
2019-04-19T02:51:39.290Z,74.99
2019-04-19T02:52:44.162Z,74.61
2019-04-19T02:53:39.391Z,74.80
2019-04-19T02:54:40.580Z,74.61
2019-04-19T02:55:38.839Z,74.90
2019-04-19T02:58:33.923Z,75.28
2019-04-19T03:27:49.598Z,74.61
2019-04-19T03:28:41.704Z,74.61
2019-04-19T03:29:38.903Z,75.28
2019-04-19T03:31:01.429Z,74.99
2019-04-19T03:32:04.640Z,75.28
2019-04-19T03:33:05.238Z,74.99
2019-04-19T03:33:58.969Z,75.85
2019-04-19T03:35:01.013Z,75.57
2019-04-19T03:35:56.247Z,76.23
2019-04-19T03:36:47.259Z,76.42
2019-04-19T03:37:52.756Z,76.52
2019-04-19T03:38:51.606Z,75.95
2019-04-19T03:40:00.689Z,75.85
2019-04-19T03:40:50.670Z,75.57
2019-04-19T03:42:09.823Z,75.85
2019-04-19T03:42:52.501Z,76.14
2019-04-19T03:43:51.847Z,76.14
2019-04-19T03:44:49.288Z,76.62
2019-04-19T03:45:56.453Z,76.71
2019-04-19T03:47:51.625Z,76.62
2019-04-19T03:48:49.487Z,77.28
2019-04-19T03:49:52.468Z,76.71
2019-04-19T03:50:54.694Z,77.38
2019-04-19T03:51:58.603Z,77.67
2019-04-19T03:52:48.981Z,77.34
2019-04-19T03:54:50.301Z,77.44
2019-04-19T03:55:57.731Z,77.38
2019-04-19T03:56:49.192Z,77.34
2019-04-19T03:57:43.777Z,77.62
2019-04-19T03:58:33.851Z,77.38
2019-04-19T03:59:33.060Z,77.67
2019-04-19T04:00:32.491Z,77.57
2019-04-19T04:01:39.633Z,77.62
2019-04-19T04:02:38.895Z,78.30
2019-04-19T04:03:37.606Z,78.77
2019-04-19T04:04:34.934Z,78.77
2019-04-19T04:05:36.737Z,79.44
2019-04-19T04:06:36.638Z,79.72
2019-04-19T04:07:33.695Z,78.58
2019-04-19T04:08:32.941Z,79.15
2019-04-19T04:09:39.183Z,78.86
2019-04-19T04:10:36.149Z,79.06
2019-04-19T04:11:33.397Z,79.35
2019-04-19T04:12:44.027Z,79.35
2019-04-19T04:13:40.812Z,79.44
2019-04-19T04:14:51.909Z,80.30
2019-04-19T04:15:47.304Z,80.68
2019-04-19T04:16:38.997Z,80.68
2019-04-19T04:17:33.307Z,80.77
2019-04-19T04:18:32.797Z,81.06
2019-04-19T04:19:33.454Z,80.96
2019-04-19T04:20:35.324Z,81.54
2019-04-19T04:21:36.889Z,82.30
2019-04-19T04:22:37.357Z,82.59
2019-04-19T04:23:37.587Z,82.40
2019-04-19T04:24:37.085Z,82.68
2019-04-19T04:25:43.099Z,82.97
2019-04-19T04:26:45.224Z,83.35
2019-04-19T04:27:47.129Z,83.40
2019-04-19T04:28:45.627Z,83.40
2019-04-19T04:29:38.897Z,83.78
2019-04-19T04:30:42.084Z,83.73
2019-04-19T04:31:43.424Z,83.92
2019-04-19T04:32:46.967Z,84.01
2019-04-19T04:33:45.955Z,84.45
2019-04-19T04:34:45.682Z,87.07
2019-04-19T04:35:48.297Z,86.93
2019-04-19T04:36:49.606Z,85.88
2019-04-19T04:37:44.710Z,84.92
2019-04-19T04:38:37.821Z,85.21
2019-04-19T04:39:32.495Z,85.50
2019-04-19T04:40:33.723Z,85.64
2019-04-19T04:41:34.312Z,85.78
2019-04-19T04:42:39.567Z,85.78
2019-04-19T04:43:43.592Z,85.60
2019-04-19T04:44:50.699Z,85.21
2019-04-19T04:46:57.702Z,85.25
2019-04-19T04:47:47.581Z,84.88
2019-04-19T04:48:52.800Z,84.20
2019-04-19T04:49:53.808Z,83.54
2019-04-19T04:50:56.441Z,82.63
2019-04-19T04:51:48.111Z,81.86
2019-04-19T04:52:37.893Z,82.43
2019-04-19T04:53:32.603Z,82.34
2019-04-19T04:54:33.427Z,81.48
2019-04-19T04:55:32.767Z,80.81
2019-04-19T04:56:46.621Z,81.10
2019-04-19T04:57:40.594Z,80.62
2019-04-19T04:58:37.183Z,80.72
2019-04-19T04:59:35.013Z,80.62
2019-04-19T05:00:41.052Z,80.53
2019-04-19T05:01:43.880Z,80.24
2019-04-19T05:02:45.020Z,79.67
2019-04-19T05:03:48.389Z,81.43
2019-04-19T05:04:46.276Z,80.09
2019-04-19T05:05:49.705Z,78.85
2019-04-19T05:06:54.464Z,78.37
2019-04-19T05:07:52.926Z,77.26
2019-04-19T05:08:49.843Z,78.31
2019-04-19T05:09:53.272Z,78.28
2019-04-19T05:10:48.831Z,78.41
2019-04-19T05:11:59.055Z,76.84
2019-04-19T05:13:11.987Z,76.46
2019-04-19T05:13:56.054Z,77.26
2019-04-19T05:14:48.927Z,77.65
2019-04-19T05:15:53.451Z,77.36
2019-04-19T05:17:04.726Z,76.54
2019-04-19T05:17:58.655Z,75.68
2019-04-19T05:18:52.416Z,73.96
2019-04-19T05:19:59.145Z,73.61
2019-04-19T05:20:48.097Z,73.61
2019-04-19T05:21:52.893Z,74.38
2019-04-19T05:22:54.995Z,74.24
2019-04-19T05:23:55.727Z,73.96
2019-04-19T05:24:57.727Z,73.96
2019-04-19T05:25:51.404Z,74.05
2019-04-19T05:27:04.726Z,74.91
2019-04-19T05:27:50.299Z,75.30
2019-04-19T05:28:50.283Z,76.25
2019-04-19T05:29:39.862Z,75.64
2019-04-19T05:30:42.706Z,76.12
2019-04-19T05:31:41.236Z,75.74
2019-04-19T05:32:35.811Z,76.12
2019-04-19T05:33:47.722Z,76.50
2019-04-19T05:34:52.482Z,76.79
2019-04-19T05:35:52.165Z,76.69
2019-04-19T05:36:51.151Z,76.40
2019-04-19T05:37:54.137Z,75.70
2019-04-19T05:39:08.902Z,76.21
2019-04-19T05:39:55.762Z,77.08
2019-04-19T05:40:46.506Z,76.69
2019-04-19T05:41:49.995Z,75.64
2019-04-19T05:42:49.229Z,75.35
2019-04-19T05:45:12.080Z,76.03
2019-04-19T05:45:58.594Z,75.64
2019-04-19T05:46:54.465Z,75.30
2019-04-19T05:47:46.242Z,74.24
2019-04-19T05:48:44.760Z,73.96
2019-04-19T05:49:52.667Z,73.96
2019-04-19T05:50:57.242Z,74.15
2019-04-19T05:51:51.303Z,73.39
2019-04-19T05:52:47.126Z,72.75
2019-04-19T05:53:41.150Z,72.08
2019-04-19T05:54:34.497Z,71.42
2019-04-19T05:55:34.654Z,71.32
2019-04-19T05:56:38.169Z,71.22
2019-04-19T05:57:50.379Z,71.03
2019-04-19T05:58:49.041Z,70.56
2019-04-19T05:59:44.770Z,70.50
2019-04-19T06:00:47.351Z,70.30
2019-04-19T06:01:52.080Z,70.56
2019-04-19T06:02:47.824Z,70.65
2019-04-19T06:03:52.612Z,71.22
2019-04-19T06:05:02.592Z,72.08
2019-04-19T06:06:01.195Z,72.43
2019-04-19T06:06:48.571Z,72.62
2019-04-19T06:07:45.599Z,73.14
2019-04-19T06:08:36.409Z,72.53
2019-04-19T06:09:34.729Z,72.43
2019-04-19T06:10:44.436Z,72.24
2019-04-19T06:11:37.793Z,72.75
2019-04-19T06:12:36.990Z,72.47
2019-04-19T06:13:37.208Z,71.51
2019-04-19T06:15:01.065Z,71.32
2019-04-19T06:15:55.662Z,72.08
2019-04-19T06:16:46.871Z,70.94
2019-04-19T06:17:55.077Z,71.13
2019-04-19T06:18:48.594Z,71.42
2019-04-19T06:19:49.739Z,71.45
2019-04-19T06:20:56.393Z,70.87
2019-04-19T06:21:50.571Z,69.86
2019-04-19T06:22:54.409Z,68.46
2019-04-19T06:24:14.820Z,66.93
2019-04-19T06:24:48.332Z,67.02
2019-04-19T06:25:58.463Z,66.74
2019-04-19T06:27:06.717Z,66.38
2019-04-19T06:29:01.696Z,64.89
2019-04-19T06:30:04.818Z,64.69
2019-04-19T06:30:53.461Z,65.08
2019-04-19T06:31:58.145Z,65.26
2019-04-19T06:32:58.510Z,64.34
2019-04-19T06:33:53.552Z,63.76
2019-04-19T06:34:49.679Z,62.36
2019-04-19T06:35:43.864Z,62.42
2019-04-19T06:36:35.321Z,62.52
2019-04-19T06:37:37.204Z,62.33
2019-04-19T06:38:35.532Z,62.55
2019-04-19T06:39:35.289Z,62.16
2019-04-19T06:40:37.524Z,62.26
2019-04-19T06:41:42.032Z,62.36
2019-04-19T06:42:42.208Z,62.07
2019-04-19T06:43:47.205Z,61.72
2019-04-19T06:44:58.757Z,60.98
2019-04-19T06:45:55.529Z,59.95
2019-04-19T06:46:46.607Z,58.99
2019-04-19T06:47:45.060Z,58.89
2019-04-19T06:48:37.808Z,58.70
2019-04-19T06:49:35.963Z,58.03
2019-04-19T06:50:39.639Z,58.15
2019-04-19T06:51:42.689Z,57.58
2019-04-19T06:52:36.737Z,57.48
2019-04-19T06:53:41.006Z,57.58
2019-04-19T06:54:39.687Z,57.39
2019-04-19T06:55:39.731Z,57.42
2019-04-19T06:56:38.863Z,57.03
2019-04-19T06:57:45.498Z,57.32
2019-04-19T06:58:45.419Z,56.84
2019-04-19T06:59:50.713Z,56.26
2019-04-19T07:00:59.533Z,57.13
2019-04-19T07:02:41.206Z,56.45
2019-04-19T07:03:40.637Z,56.16
2019-04-19T07:04:49.134Z,56.55
2019-04-19T07:05:49.543Z,56.20
2019-04-19T07:06:46.604Z,56.84
2019-04-19T07:08:18.269Z,57.60
2019-04-19T07:10:08.152Z,57.83
2019-04-19T07:11:06.222Z,56.20
2019-04-19T07:12:11.981Z,57.28
2019-04-19T07:13:55.962Z,56.29
2019-04-19T07:15:14.439Z,56.48
2019-04-19T07:16:16.106Z,57.73
2019-04-19T07:17:15.412Z,58.15
2019-04-19T07:19:13.492Z,57.18
2019-04-19T07:20:04.603Z,58.05
2019-04-19T07:21:12.452Z,58.72
2019-04-19T07:22:08.010Z,56.35
2019-04-19T07:23:06.900Z,54.97
2019-04-19T07:24:16.200Z,55.35
2019-04-19T07:25:21.607Z,54.94
2019-04-19T07:26:16.930Z,56.29
2019-04-19T07:27:13.655Z,56.10
2019-04-19T07:28:04.888Z,57.06
2019-04-19T07:29:04.186Z,55.71
2019-04-19T07:31:11.476Z,56.55
2019-04-19T07:32:08.182Z,56.20
